createdAt,value
2022-09-01T00:00:48.924Z,20.5
2022-09-01T00:01:49.869Z,20.5
2022-09-01T00:02:50.960Z,20.5
2022-09-01T00:03:51.973Z,20.5
2022-09-01T00:04:52.872Z,20.6
2022-09-01T00:05:54.114Z,20.6
2022-09-01T00:06:55.875Z,20.5
2022-09-01T00:07:56.881Z,20.5
2022-09-01T00:08:57.886Z,20.5
2022-09-01T00:09:58.874Z,20.5
2022-09-01T00:10:59.911Z,20.6
2022-09-01T00:12:00.930Z,20.6
2022-09-01T00:13:02.097Z,20.6
2022-09-01T00:14:03.880Z,20.7
2022-09-01T00:15:04.911Z,20.7
2022-09-01T00:16:06.041Z,20.6
2022-09-01T00:17:07.906Z,20.6
2022-09-01T00:18:09.097Z,20.7
2022-09-01T00:19:10.913Z,20.7
2022-09-01T00:20:11.934Z,20.7
2022-09-01T00:21:12.917Z,20.7
2022-09-01T00:22:13.935Z,20.7
2022-09-01T00:23:14.915Z,20.7
2022-09-01T00:24:15.914Z,20.7
2022-09-01T00:25:16.909Z,20.7
2022-09-01T00:26:17.931Z,20.7
2022-09-01T00:27:18.917Z,20.7
2022-09-01T00:28:20.116Z,20.7
2022-09-01T00:29:20.939Z,20.7
2022-09-01T00:30:21.983Z,20.7
2022-09-01T00:31:22.947Z,20.7
2022-09-01T00:32:23.910Z,20.7
2022-09-01T00:33:24.918Z,20.7
2022-09-01T00:34:25.949Z,20.6
2022-09-01T00:35:26.921Z,20.6
2022-09-01T00:36:27.922Z,20.6
2022-09-01T00:37:28.959Z,20.6
2022-09-01T00:38:29.947Z,20.6
2022-09-01T00:39:30.926Z,20.7
2022-09-01T00:40:33.053Z,20.7
2022-09-01T00:41:33.946Z,20.7
2022-09-01T00:42:35.161Z,20.7
2022-09-01T00:43:37.201Z,20.7
2022-09-01T00:44:39.281Z,20.6
2022-09-01T00:45:41.124Z,20.6
2022-09-01T00:46:47.855Z,20.6
2022-09-01T00:47:45.001Z,20.6
2022-09-01T00:48:47.012Z,20.6
2022-09-01T00:49:49.028Z,20.6
2022-09-01T00:50:54.523Z,20.6
2022-09-01T00:51:53.087Z,20.6
2022-09-01T00:52:55.062Z,20.7
2022-09-01T00:53:57.116Z,20.7
2022-09-01T00:54:59.068Z,20.7
2022-09-01T00:56:01.065Z,20.7
2022-09-01T00:57:03.097Z,20.7
2022-09-01T00:58:05.013Z,20.7
2022-09-01T00:59:07.325Z,20.6
2022-09-01T01:00:09.082Z,20.6
2022-09-01T01:01:11.154Z,20.6
2022-09-01T01:02:13.140Z,20.6
2022-09-01T01:03:15.049Z,20.6
2022-09-01T01:04:17.059Z,20.6
2022-09-01T01:05:19.098Z,20.6
2022-09-01T01:06:21.167Z,20.6
2022-09-01T01:07:23.153Z,20.6
2022-09-01T01:08:25.203Z,20.6
2022-09-01T01:09:27.025Z,20.7
2022-09-01T01:10:29.276Z,20.7
2022-09-01T01:11:31.405Z,20.7
2022-09-01T01:12:32.983Z,20.7
2022-09-01T01:13:35.081Z,20.7
2022-09-01T01:14:37.013Z,20.7
2022-09-01T01:15:39.015Z,20.7
2022-09-01T01:16:41.169Z,20.7
2022-09-01T01:17:43.063Z,20.7
2022-09-01T01:18:45.025Z,20.7
2022-09-01T01:19:46.997Z,20.7
2022-09-01T01:20:48.000Z,20.7
2022-09-01T01:21:48.993Z,20.7
2022-09-01T01:22:50.001Z,20.6
2022-09-01T01:23:51.018Z,20.6
2022-09-01T01:24:52.010Z,20.6
2022-09-01T01:25:53.025Z,20.7
2022-09-01T01:26:54.001Z,20.7
2022-09-01T01:27:55.006Z,20.7
2022-09-01T01:28:57.184Z,20.6
2022-09-01T01:29:59.070Z,20.7
2022-09-01T01:31:00.072Z,20.7
2022-09-01T01:32:01.046Z,20.6
2022-09-01T01:33:02.006Z,20.6
2022-09-01T01:34:03.012Z,20.6
2022-09-01T01:35:04.075Z,20.7
2022-09-01T01:36:05.020Z,20.7
2022-09-01T01:37:06.020Z,20.6
2022-09-01T01:38:07.015Z,20.7
2022-09-01T01:39:08.024Z,20.7
2022-09-01T01:40:09.102Z,20.7
2022-09-01T01:41:10.028Z,20.7
2022-09-01T01:42:11.052Z,20.7
2022-09-01T01:43:12.053Z,20.7
2022-09-01T01:44:13.025Z,20.6
2022-09-01T01:45:14.041Z,20.6
2022-09-01T01:46:15.117Z,20.6
2022-09-01T01:47:16.094Z,20.6
2022-09-01T01:48:17.111Z,20.6
2022-09-01T01:49:18.034Z,20.6
2022-09-01T01:50:19.040Z,20.6
2022-09-01T01:51:20.040Z,20.6
2022-09-01T01:52:21.069Z,20.7
2022-09-01T01:53:22.049Z,20.7
2022-09-01T01:54:23.072Z,20.8
2022-09-01T01:55:24.045Z,20.8
2022-09-01T01:56:25.050Z,20.8
2022-09-01T01:57:26.073Z,20.8
2022-09-01T01:58:27.047Z,20.8
2022-09-01T01:59:28.052Z,20.8
2022-09-01T02:00:30.087Z,20.7
2022-09-01T02:01:30.132Z,20.7
2022-09-01T02:02:31.072Z,20.7
2022-09-01T02:03:32.120Z,20.6
2022-09-01T02:04:33.069Z,20.6
2022-09-01T02:05:34.063Z,20.6
2022-09-01T02:06:35.062Z,20.6
2022-09-01T02:07:36.062Z,20.6
2022-09-01T02:08:37.090Z,20.7
2022-09-01T02:09:38.066Z,20.7
2022-09-01T02:10:39.070Z,20.7
2022-09-01T02:11:40.075Z,20.7
2022-09-01T02:12:41.102Z,20.7
2022-09-01T02:13:42.140Z,20.6
2022-09-01T02:14:43.080Z,20.6
2022-09-01T02:15:44.082Z,20.6
2022-09-01T02:16:45.171Z,20.7
2022-09-01T02:17:46.086Z,20.7
2022-09-01T02:18:47.136Z,20.7
2022-09-01T02:19:48.082Z,20.6
2022-09-01T02:20:49.090Z,20.6
2022-09-01T02:21:50.093Z,20.6
2022-09-01T02:22:51.128Z,20.6
2022-09-01T02:23:52.121Z,20.6
2022-09-01T02:24:53.096Z,20.6
2022-09-01T02:26:14.943Z,20.6
2022-09-01T02:26:55.088Z,20.6
2022-09-01T02:27:56.109Z,20.6
2022-09-01T02:28:57.134Z,20.5
2022-09-01T02:29:58.124Z,20.5
2022-09-01T02:30:59.174Z,20.4
2022-09-01T02:32:00.108Z,20.4
2022-09-01T02:33:01.148Z,20.4
2022-09-01T02:34:02.147Z,20.4
2022-09-01T02:35:03.104Z,20.4
2022-09-01T02:36:04.112Z,20.4
2022-09-01T02:37:05.132Z,20.4
2022-09-01T02:38:06.109Z,20.4
2022-09-01T02:39:08.093Z,20.4
2022-09-01T02:40:08.164Z,20.4
2022-09-01T02:41:09.170Z,20.4
2022-09-01T02:42:10.113Z,20.4
2022-09-01T02:43:11.123Z,20.4
2022-09-01T02:44:12.116Z,20.4
2022-09-01T02:45:13.124Z,20.4
2022-09-01T02:46:14.215Z,20.4
2022-09-01T02:47:15.128Z,20.4
2022-09-01T02:48:16.209Z,20.5
2022-09-01T02:49:17.159Z,20.5
2022-09-01T02:50:18.167Z,20.5
2022-09-01T02:51:19.140Z,20.5
2022-09-01T02:52:20.133Z,20.5
2022-09-01T02:53:21.175Z,20.5
2022-09-01T02:54:22.206Z,20.5
2022-09-01T02:55:23.131Z,20.6
2022-09-01T02:56:25.186Z,20.6
2022-09-01T02:57:25.150Z,20.6
2022-09-01T02:58:26.290Z,20.6
2022-09-01T02:59:28.392Z,20.6
2022-09-01T03:00:30.243Z,20.6
2022-09-01T03:01:32.495Z,20.7
2022-09-01T03:02:34.270Z,20.7
2022-09-01T03:03:36.264Z,20.7
2022-09-01T03:04:38.409Z,20.6
2022-09-01T03:05:40.381Z,20.6
2022-09-01T03:06:42.301Z,20.6
2022-09-01T03:07:44.413Z,20.6
2022-09-01T03:08:47.272Z,20.6
2022-09-01T03:09:49.234Z,20.7
2022-09-01T03:10:51.308Z,20.7
2022-09-01T03:11:53.362Z,20.6
2022-09-01T03:12:55.288Z,20.7
2022-09-01T03:13:57.348Z,20.7
2022-09-01T03:14:59.378Z,20.6
2022-09-01T03:16:01.275Z,20.6
2022-09-01T03:17:03.279Z,20.6
2022-09-01T03:18:05.177Z,20.5
2022-09-01T03:19:06.620Z,20.5
2022-09-01T03:20:08.392Z,20.5
2022-09-01T03:21:10.285Z,20.5
2022-09-01T03:22:12.382Z,20.5
2022-09-01T03:23:14.299Z,20.4
2022-09-01T03:24:16.359Z,20.4
2022-09-01T03:25:18.353Z,20.4
2022-09-01T03:26:20.362Z,20.4
2022-09-01T03:27:22.430Z,20.5
2022-09-01T03:28:24.267Z,20.4
2022-09-01T03:29:25.301Z,20.4
2022-09-01T03:30:27.252Z,20.4
2022-09-01T03:31:29.949Z,20.4
2022-09-01T03:32:31.243Z,20.4
2022-09-01T03:33:33.263Z,20.3
2022-09-01T03:34:35.227Z,20.3
2022-09-01T03:35:37.456Z,20.3
2022-09-01T03:36:39.431Z,20.3
2022-09-01T03:37:41.550Z,20.2
2022-09-01T03:38:43.202Z,20.2
2022-09-01T03:39:44.240Z,20.2
2022-09-01T03:40:45.339Z,20.2
2022-09-01T03:41:46.271Z,20.2
2022-09-01T03:42:47.207Z,20.2
2022-09-01T03:43:48.342Z,20.3
2022-09-01T03:44:49.223Z,20.3
2022-09-01T03:45:50.270Z,20.3
2022-09-01T03:46:51.246Z,20.3
2022-09-01T03:47:52.220Z,20.3
2022-09-01T03:48:53.220Z,20.3
2022-09-01T03:49:54.226Z,20.2
2022-09-01T03:50:55.261Z,20.2
2022-09-01T03:51:56.265Z,20.2
2022-09-01T03:52:57.280Z,20.2
2022-09-01T03:54:00.261Z,20.2
2022-09-01T03:55:01.278Z,20.3
2022-09-01T03:56:02.237Z,20.3
2022-09-01T03:57:03.412Z,20.3
2022-09-01T03:58:05.247Z,20.4
2022-09-01T03:59:07.546Z,20.4
2022-09-01T04:00:07.291Z,20.4
2022-09-01T04:01:09.563Z,20.4
2022-09-01T04:02:10.358Z,20.4
2022-09-01T04:03:11.269Z,20.4
2022-09-01T04:04:12.277Z,20.4
2022-09-01T04:05:13.252Z,20.4
2022-09-01T04:06:14.255Z,20.3
2022-09-01T04:07:15.610Z,20.3
2022-09-01T04:08:16.249Z,20.3
2022-09-01T04:09:17.278Z,20.3
2022-09-01T04:10:18.257Z,20.3
2022-09-01T04:11:19.259Z,20.3
2022-09-01T04:12:20.267Z,20.3
2022-09-01T04:13:21.303Z,20.3
2022-09-01T04:14:22.289Z,20.3
2022-09-01T04:15:23.271Z,20.3
2022-09-01T04:16:24.383Z,20.4
2022-09-01T04:17:28.674Z,20.4
2022-09-01T04:18:26.291Z,20.4
2022-09-01T04:19:27.303Z,20.4
2022-09-01T04:20:28.275Z,20.4
2022-09-01T04:21:29.297Z,20.4
2022-09-01T04:22:30.285Z,20.3
2022-09-01T04:23:31.313Z,20.3
2022-09-01T04:24:32.308Z,20.3
2022-09-01T04:25:33.281Z,20.3
2022-09-01T04:26:34.284Z,20.3
2022-09-01T04:27:35.363Z,20.3
2022-09-01T04:28:36.289Z,20.3
2022-09-01T04:29:37.340Z,20.4
2022-09-01T04:30:38.313Z,20.4
2022-09-01T04:31:39.363Z,20.4
2022-09-01T04:32:40.324Z,20.5
2022-09-01T04:33:41.290Z,20.5
2022-09-01T04:34:42.325Z,20.4
2022-09-01T04:35:43.291Z,20.4
2022-09-01T04:36:44.299Z,20.5
2022-09-01T04:37:45.319Z,20.5
2022-09-01T04:38:46.303Z,20.5
2022-09-01T04:39:47.335Z,20.6
2022-09-01T04:40:48.387Z,20.5
2022-09-01T04:41:49.308Z,20.5
2022-09-01T04:42:50.335Z,20.6
2022-09-01T04:43:51.311Z,20.6
2022-09-01T04:44:52.341Z,20.6
2022-09-01T04:45:53.369Z,20.7
2022-09-01T04:46:54.319Z,20.7
2022-09-01T04:47:55.328Z,20.8
2022-09-01T04:48:56.317Z,20.8
2022-09-01T04:49:57.347Z,20.8
2022-09-01T04:50:58.341Z,20.8
2022-09-01T04:51:59.348Z,20.8
2022-09-01T04:53:00.323Z,20.8
2022-09-01T04:54:01.474Z,20.8
2022-09-01T04:55:03.359Z,20.9
2022-09-01T04:56:04.351Z,20.9
2022-09-01T04:57:05.399Z,20.8
2022-09-01T04:58:10.033Z,20.8
2022-09-01T04:59:07.371Z,20.8
2022-09-01T05:00:08.347Z,20.8
2022-09-01T05:01:09.360Z,20.8
2022-09-01T05:02:10.552Z,20.9
2022-09-01T05:03:12.351Z,20.9
2022-09-01T05:04:13.343Z,20.9
2022-09-01T05:05:14.355Z,20.9
2022-09-01T05:06:15.352Z,20.9
2022-09-01T05:07:16.388Z,21
2022-09-01T05:08:18.123Z,21
2022-09-01T05:09:18.356Z,21
2022-09-01T05:10:19.346Z,20.9
2022-09-01T05:11:20.377Z,20.8
2022-09-01T05:12:21.399Z,20.8
2022-09-01T05:13:22.357Z,20.9
2022-09-01T05:14:23.423Z,20.9
2022-09-01T05:15:24.370Z,20.9
2022-09-01T05:16:25.732Z,20.9
2022-09-01T05:17:26.362Z,21
2022-09-01T05:18:27.359Z,21
2022-09-01T05:19:28.409Z,21
2022-09-01T05:20:29.370Z,21.1
2022-09-01T05:21:30.366Z,21.1
2022-09-01T05:22:31.377Z,21.1
2022-09-01T05:23:32.398Z,21.1
2022-09-01T05:24:33.369Z,21.2
2022-09-01T05:25:34.381Z,21.2
2022-09-01T05:26:35.438Z,21.2
2022-09-01T05:27:36.413Z,21.3
2022-09-01T05:28:37.406Z,21.4
2022-09-01T05:29:38.383Z,21.3
2022-09-01T05:30:39.390Z,21.4
2022-09-01T05:31:40.472Z,21.4
2022-09-01T05:32:41.395Z,21.5
2022-09-01T05:33:42.415Z,21.5
2022-09-01T05:34:43.391Z,21.7
2022-09-01T05:35:45.390Z,21.8
2022-09-01T05:36:46.436Z,21.9
2022-09-01T05:37:47.389Z,22.1
2022-09-01T05:38:48.435Z,22.5
2022-09-01T05:39:49.610Z,23
2022-09-01T05:40:51.430Z,23.6
2022-09-01T05:41:52.409Z,24.1
2022-09-01T05:42:53.414Z,24.6
2022-09-01T05:43:59.556Z,25.3
2022-09-01T05:44:55.427Z,25.9
2022-09-01T05:46:06.437Z,26.4
2022-09-01T05:46:57.436Z,27
2022-09-01T05:47:58.404Z,27.5
2022-09-01T05:48:59.450Z,27.8
2022-09-01T05:50:00.421Z,27.6
2022-09-01T05:51:01.441Z,27.2
2022-09-01T05:52:02.418Z,26.6
2022-09-01T05:53:03.447Z,26.1
2022-09-01T05:54:04.421Z,25.4
2022-09-01T05:55:05.436Z,24.8
2022-09-01T05:56:06.456Z,24.3
2022-09-01T05:57:23.719Z,23.8
2022-09-01T05:58:08.420Z,23.6
2022-09-01T05:59:25.974Z,23.4
2022-09-01T06:00:10.465Z,23.4
2022-09-01T06:01:11.438Z,23.5
2022-09-01T06:02:12.896Z,23.7
2022-09-01T06:03:14.584Z,23.8
2022-09-01T06:04:15.435Z,23.8
2022-09-01T06:05:16.433Z,23.9
2022-09-01T06:06:17.444Z,23.9
2022-09-01T06:07:24.991Z,23.9
2022-09-01T06:08:19.462Z,23.7
2022-09-01T06:09:20.473Z,23.6
2022-09-01T06:10:21.519Z,23.5
2022-09-01T06:11:22.445Z,23.4
2022-09-01T06:12:23.510Z,23.4
2022-09-01T06:13:25.661Z,23.3
2022-09-01T06:14:25.465Z,23.2
2022-09-01T06:15:26.485Z,23.2
2022-09-01T06:16:27.486Z,23.2
2022-09-01T06:17:28.463Z,23.2
2022-09-01T06:18:29.465Z,23.3
2022-09-01T06:19:33.631Z,23.3
2022-09-01T06:20:31.481Z,23.3
2022-09-01T06:21:32.464Z,23.2
2022-09-01T06:22:33.516Z,23.2
2022-09-01T06:23:34.469Z,23.3
2022-09-01T06:24:35.505Z,23.5
2022-09-01T06:25:36.473Z,23.5
2022-09-01T06:26:37.488Z,23.5
2022-09-01T06:27:38.481Z,23.5
2022-09-01T06:28:39.527Z,23.8
2022-09-01T06:29:40.508Z,24
2022-09-01T06:30:41.518Z,24.3
2022-09-01T06:31:42.596Z,24.5
2022-09-01T06:32:43.524Z,24.7
2022-09-01T06:33:44.517Z,24.8
2022-09-01T06:34:45.528Z,25
2022-09-01T06:35:46.508Z,25.1
2022-09-01T06:36:47.484Z,25.1
2022-09-01T06:37:49.357Z,25
2022-09-01T06:38:53.088Z,25.3
2022-09-01T06:39:55.571Z,25.9
2022-09-01T06:40:56.535Z,26.8
2022-09-01T06:41:57.501Z,27.4
2022-09-01T06:42:58.494Z,27.7
2022-09-01T06:43:59.509Z,27.7
2022-09-01T06:45:00.505Z,27.7
2022-09-01T06:46:01.671Z,28
2022-09-01T06:47:03.523Z,28.2
2022-09-01T06:48:05.565Z,28.3
2022-09-01T06:49:07.509Z,28.2
2022-09-01T06:50:08.514Z,28.3
2022-09-01T06:51:18.841Z,28.5
2022-09-01T06:52:10.521Z,28.6
2022-09-01T06:54:12.547Z,29.1
2022-09-01T06:55:13.552Z,29.3
2022-09-01T06:56:14.522Z,29.2
2022-09-01T06:58:16.618Z,28.4
2022-09-01T06:59:17.530Z,28.3
2022-09-01T07:00:19.128Z,28.3
2022-09-01T07:01:20.023Z,28.3
2022-09-01T07:03:23.529Z,29.3
2022-09-01T07:04:24.947Z,30
2022-09-01T07:08:28.552Z,31.8
2022-09-01T07:09:37.824Z,32.1
2022-09-01T07:10:30.579Z,32.1
2022-09-01T07:12:32.562Z,30.3
2022-09-01T07:16:29.719Z,29.2
2022-09-01T07:17:38.558Z,29.9
2022-09-01T07:18:39.583Z,30.2
2022-09-01T07:19:55.864Z,30.6
2022-09-01T07:22:06.600Z,31.5
2022-09-01T07:24:05.971Z,32.1
2022-09-01T07:24:45.594Z,32.3
2022-09-01T07:26:01.819Z,32.7
2022-09-01T07:26:47.712Z,33
2022-09-01T07:27:48.622Z,33.2
2022-09-01T07:28:49.616Z,33.3
2022-09-01T07:29:50.583Z,33.3
2022-09-01T07:30:51.589Z,33.4
2022-09-01T07:32:43.869Z,33.5
2022-09-01T07:32:53.942Z,33.6
2022-09-01T07:33:54.601Z,33.7
2022-09-01T07:34:55.656Z,33.8
2022-09-01T07:38:49.401Z,33.7
2022-09-01T07:42:58.162Z,28.7
2022-09-01T07:42:58.356Z,29.5
2022-09-01T07:42:58.371Z,31.1
2022-09-01T07:42:58.613Z,29.7
2022-09-01T07:44:04.613Z,32.5
2022-09-01T07:47:52.226Z,33
2022-09-01T07:48:08.680Z,33
2022-09-01T07:50:24.961Z,32.9
2022-09-01T07:51:41.247Z,32.9
2022-09-01T07:52:12.647Z,33.2
2022-09-01T07:53:13.643Z,33.3
2022-09-01T07:54:14.697Z,33.3
2022-09-01T07:55:15.661Z,33.4
2022-09-01T07:56:16.641Z,33.4
2022-09-01T07:57:17.629Z,33.2
2022-09-01T07:58:18.640Z,33.2
2022-09-01T07:59:19.669Z,33.2
2022-09-01T08:00:20.635Z,33
2022-09-01T08:01:21.690Z,32.7
2022-09-01T08:02:22.698Z,32.1
2022-09-01T08:03:23.956Z,31.9
2022-09-01T08:04:24.661Z,32
2022-09-01T08:05:25.690Z,32.2
2022-09-01T08:06:27.193Z,32.4
2022-09-01T08:07:27.651Z,32.7
2022-09-01T08:08:29.527Z,32.8
2022-09-01T08:09:37.325Z,32.9
2022-09-01T08:10:30.665Z,33.2
2022-09-01T08:12:32.672Z,33.5
2022-09-01T08:13:37.280Z,33.6
2022-09-01T08:14:34.691Z,33.8
2022-09-01T08:15:39.335Z,33.9
2022-09-01T08:16:40.267Z,34
2022-09-01T08:17:50.641Z,34
2022-09-01T08:18:53.926Z,33.8
2022-09-01T08:19:39.671Z,33.2
2022-09-01T08:20:41.701Z,32.7
2022-09-01T08:21:42.673Z,32.6
2022-09-01T08:22:43.684Z,32.6
2022-09-01T08:23:44.764Z,32.5
2022-09-01T08:24:45.673Z,32.6
2022-09-01T08:25:46.692Z,32.8
2022-09-01T08:26:47.719Z,32.9
2022-09-01T08:27:48.738Z,32.9
2022-09-01T08:28:54.865Z,32.6
2022-09-01T08:29:50.736Z,32.1
2022-09-01T08:30:52.243Z,31.5
2022-09-01T08:31:52.720Z,31.2
2022-09-01T08:32:53.736Z,30.8
2022-09-01T08:33:54.738Z,30.7
2022-09-01T08:34:55.703Z,30.9
2022-09-01T08:35:56.700Z,30.9
2022-09-01T08:36:57.700Z,30.6
2022-09-01T08:37:58.771Z,30.4
2022-09-01T08:38:59.747Z,30.5
2022-09-01T08:40:00.776Z,30.4
2022-09-01T08:41:01.867Z,30.1
2022-09-01T08:42:02.759Z,30.1
2022-09-01T08:43:03.759Z,30.5
2022-09-01T08:44:04.720Z,30.9
2022-09-01T08:45:06.216Z,31.2
2022-09-01T08:46:07.793Z,31.6
2022-09-01T08:47:08.727Z,31.9
2022-09-01T08:49:16.365Z,32.2
2022-09-01T08:49:27.267Z,32.4
2022-09-01T08:50:11.786Z,32.7
2022-09-01T08:51:19.941Z,33
2022-09-01T08:52:16.763Z,33.1
2022-09-01T08:53:17.767Z,33.2
2022-09-01T08:54:18.736Z,33.4
2022-09-01T08:55:19.758Z,33.6
2022-09-01T08:56:20.759Z,33.7
2022-09-01T08:57:21.782Z,33.6
2022-09-01T08:58:22.943Z,33.4
2022-09-01T08:59:23.812Z,32.9
2022-09-01T09:00:24.767Z,32.5
2022-09-01T09:01:25.788Z,32.3
2022-09-01T09:02:26.788Z,32.4
2022-09-01T09:03:40.361Z,32.5
2022-09-01T09:04:28.778Z,32.4
2022-09-01T09:05:30.113Z,32.4
2022-09-01T09:06:31.766Z,31.9
2022-09-01T09:07:32.766Z,31.8
2022-09-01T09:08:33.767Z,31.8
2022-09-01T09:09:34.785Z,32
2022-09-01T09:10:35.797Z,32.1
2022-09-01T09:11:36.851Z,32.4
2022-09-01T09:12:48.839Z,32.9
2022-09-01T09:13:38.782Z,33.3
2022-09-01T09:14:39.769Z,33.6
2022-09-01T09:15:40.889Z,33.8
2022-09-01T09:16:41.782Z,33.7
2022-09-01T09:17:42.775Z,33.6
2022-09-01T09:18:54.566Z,33.7
2022-09-01T09:19:44.782Z,33.6
2022-09-01T09:20:45.825Z,33.4
2022-09-01T09:21:47.467Z,33.2
2022-09-01T09:22:47.857Z,33
2022-09-01T09:23:48.790Z,32.6
2022-09-01T09:24:49.831Z,32.2
2022-09-01T09:25:50.850Z,31.7
2022-09-01T09:26:51.840Z,31.1
2022-09-01T09:28:08.146Z,30.5
2022-09-01T09:28:53.802Z,29.9
2022-09-01T09:29:54.819Z,29.3
2022-09-01T09:30:56.410Z,29.1
2022-09-01T09:31:56.875Z,29.2
2022-09-01T09:33:59.113Z,29.6
2022-09-01T09:34:59.816Z,29.9
2022-09-01T09:36:00.874Z,30.5
2022-09-01T09:37:01.474Z,31.1
2022-09-01T09:38:02.852Z,31.7
2022-09-01T09:39:03.818Z,32.2
2022-09-01T09:40:04.854Z,32.6
2022-09-01T09:41:17.547Z,32.9
2022-09-01T09:42:06.835Z,32.9
2022-09-01T09:43:07.822Z,32.8
2022-09-01T09:44:11.177Z,32.7
2022-09-01T09:45:09.921Z,32.6
2022-09-01T09:46:23.104Z,32.4
2022-09-01T09:47:27.362Z,32.3
2022-09-01T09:48:12.838Z,32.4
2022-09-01T09:49:14.650Z,32.4
2022-09-01T09:50:14.857Z,32.5
2022-09-01T09:51:15.871Z,32.3
2022-09-01T09:52:16.885Z,32.2
2022-09-01T09:53:17.924Z,32
2022-09-01T09:54:18.853Z,31.4
2022-09-01T09:55:19.843Z,30.8
2022-09-01T09:56:20.879Z,30.7
2022-09-01T09:57:22.115Z,30.5
2022-09-01T09:58:22.849Z,30.2
2022-09-01T09:59:39.766Z,30.1
2022-09-01T10:00:25.622Z,29.8
2022-09-01T10:01:26.015Z,29.5
2022-09-01T10:02:27.383Z,29.4
2022-09-01T10:03:29.066Z,29.6
2022-09-01T10:04:28.963Z,29.9
2022-09-01T10:05:30.222Z,30.4
2022-09-01T10:06:30.933Z,30.9
2022-09-01T10:07:31.872Z,31.5
2022-09-01T10:08:32.904Z,32
2022-09-01T10:09:33.886Z,32.4
2022-09-01T10:10:34.888Z,32.8
2022-09-01T10:11:36.106Z,33.1
2022-09-01T10:12:36.880Z,33
2022-09-01T10:13:37.911Z,32.8
2022-09-01T10:14:53.974Z,32.5
2022-09-01T10:15:39.886Z,32.3
2022-09-01T10:16:40.921Z,32.2
2022-09-01T10:17:43.490Z,32.1
2022-09-01T10:18:42.906Z,32.3
2022-09-01T10:19:43.932Z,32.5
2022-09-01T10:20:44.902Z,32.7
2022-09-01T10:21:45.895Z,32.3
2022-09-01T10:22:48.318Z,31.5
2022-09-01T10:23:47.930Z,30.9
2022-09-01T10:24:50.235Z,30.3
2022-09-01T10:25:49.929Z,30.2
2022-09-01T10:26:50.901Z,30.2
2022-09-01T10:27:54.201Z,30.2
2022-09-01T10:28:52.929Z,30.1
2022-09-01T10:30:11.991Z,29.8
2022-09-01T10:30:55.004Z,29.5
2022-09-01T10:32:09.405Z,29.2
2022-09-01T10:32:58.185Z,28.9
2022-09-01T10:33:58.598Z,28.5
2022-09-01T10:34:59.534Z,28.3
2022-09-01T10:35:59.932Z,28.6
2022-09-01T10:37:00.949Z,29
2022-09-01T10:38:01.995Z,29.5
2022-09-01T10:39:08.731Z,30.1
2022-09-01T10:40:04.002Z,30.5
2022-09-01T10:41:05.020Z,31
2022-09-01T10:42:05.932Z,31.5
2022-09-01T10:43:12.359Z,31.9
2022-09-01T10:44:07.932Z,32.1
2022-09-01T10:45:08.478Z,32.3
2022-09-01T10:46:15.173Z,32.6
2022-09-01T10:47:14.813Z,33.1
2022-09-01T10:48:13.176Z,33.4
2022-09-01T10:49:12.946Z,33.6
2022-09-01T10:50:13.996Z,33.5
2022-09-01T10:51:18.753Z,33.2
2022-09-01T10:52:16.259Z,33.2
2022-09-01T10:53:17.401Z,33.4
2022-09-01T10:54:17.970Z,33.4
2022-09-01T10:55:24.395Z,33.2
2022-09-01T10:56:24.878Z,33
2022-09-01T10:57:21.245Z,33.1
2022-09-01T10:59:31.010Z,33.8
2022-09-01T11:00:39.897Z,34.1
2022-09-01T11:01:47.072Z,34
2022-09-01T11:02:27.888Z,33.3
2022-09-01T11:03:30.683Z,32.7
2022-09-01T11:04:28.176Z,32.5
2022-09-01T11:05:33.202Z,32.3
2022-09-01T11:06:33.119Z,32.3
2022-09-01T11:07:50.131Z,32.3
2022-09-01T11:08:32.224Z,32.1
2022-09-01T11:09:33.004Z,32
2022-09-01T11:10:34.416Z,32.2
2022-09-01T11:11:35.010Z,32.4
2022-09-01T11:12:36.019Z,32.6
2022-09-01T11:13:37.026Z,32.8
2022-09-01T11:14:37.378Z,33.1
2022-09-01T11:15:39.019Z,33.3
2022-09-01T11:16:48.191Z,33.7
2022-09-01T11:17:41.476Z,33.9
2022-09-01T11:18:43.000Z,34.1
2022-09-01T11:19:44.400Z,34.2
2022-09-01T11:20:45.495Z,34.3
2022-09-01T11:21:46.047Z,34.4
2022-09-01T11:22:47.048Z,34.3
2022-09-01T11:23:48.004Z,34.3
2022-09-01T11:24:54.541Z,34.3
2022-09-01T11:26:18.953Z,34.5
2022-09-01T11:26:51.008Z,34.5
2022-09-01T11:27:52.082Z,34.4
2022-09-01T11:28:53.029Z,34.3
2022-09-01T11:29:55.660Z,34.2
2022-09-01T11:30:55.025Z,34.1
2022-09-01T11:31:56.055Z,34
2022-09-01T11:32:57.056Z,34.1
2022-09-01T11:33:58.070Z,34.1
2022-09-01T11:34:59.036Z,34.2
2022-09-01T11:36:00.058Z,34.3
2022-09-01T11:37:01.025Z,34.1
2022-09-01T11:38:02.069Z,33.8
2022-09-01T11:39:03.054Z,33.2
2022-09-01T11:40:04.127Z,32.5
2022-09-01T11:41:05.061Z,32.2
2022-09-01T11:42:05.486Z,32.2
2022-09-01T11:43:06.452Z,32.4
2022-09-01T11:44:07.445Z,32.8
2022-09-01T11:45:09.049Z,33.3
2022-09-01T11:46:11.272Z,33.7
2022-09-01T11:47:14.293Z,33.8
2022-09-01T11:48:13.052Z,33.7
2022-09-01T11:49:14.059Z,33.4
2022-09-01T11:50:15.099Z,33.1
2022-09-01T11:51:16.086Z,32.6
2022-09-01T11:52:17.059Z,32.1
2022-09-01T11:53:18.071Z,31.8
2022-09-01T11:54:19.070Z,31.7
2022-09-01T11:55:20.083Z,31.8
2022-09-01T11:56:21.149Z,32
2022-09-01T11:57:22.120Z,32.3
2022-09-01T11:58:23.063Z,32.5
2022-09-01T11:59:24.062Z,32.8
2022-09-01T12:00:25.079Z,33
2022-09-01T12:01:25.510Z,33.2
2022-09-01T12:02:26.534Z,33.3
2022-09-01T12:03:27.700Z,33.5
2022-09-01T12:04:28.446Z,33.7
2022-09-01T12:05:30.083Z,33.9
2022-09-01T12:06:31.105Z,33.8
2022-09-01T12:07:32.107Z,33.2
2022-09-01T12:08:32.464Z,33
2022-09-01T12:09:34.093Z,33.1
2022-09-01T12:10:35.095Z,33.1
2022-09-01T12:11:36.149Z,32.9
2022-09-01T12:12:37.104Z,32.3
2022-09-01T12:13:38.113Z,31.6
2022-09-01T12:15:02.324Z,31
2022-09-01T12:15:50.372Z,30.5
2022-09-01T12:16:41.201Z,30.1
2022-09-01T12:17:42.100Z,30
2022-09-01T12:18:43.112Z,30.1
2022-09-01T12:19:44.101Z,30.4
2022-09-01T12:20:44.497Z,30.5
2022-09-01T12:21:46.181Z,30.7
2022-09-01T12:22:46.505Z,30.9
2022-09-01T12:23:47.531Z,31.2
2022-09-01T12:24:48.546Z,31.6
2022-09-01T12:25:49.487Z,32
2022-09-01T12:26:50.524Z,32.4
2022-09-01T12:27:52.142Z,32.7
2022-09-01T12:28:53.199Z,33
2022-09-01T12:29:54.144Z,32.9
2022-09-01T12:30:55.146Z,32.7
2022-09-01T12:31:56.223Z,32.1
2022-09-01T12:33:24.916Z,31.6
2022-09-01T12:33:58.175Z,31.1
2022-09-01T12:34:59.136Z,30.7
2022-09-01T12:36:00.191Z,30.3
2022-09-01T12:37:01.210Z,30
2022-09-01T12:38:03.048Z,29.6
2022-09-01T12:39:03.247Z,29.1
2022-09-01T12:40:05.194Z,28.9
2022-09-01T12:41:06.151Z,28.8
2022-09-01T12:42:07.191Z,28.8
2022-09-01T12:43:08.171Z,28.7
2022-09-01T12:44:09.187Z,28.6
2022-09-01T12:45:10.156Z,28.4
2022-09-01T12:46:11.190Z,28.4
2022-09-01T12:47:12.200Z,28.6
2022-09-01T12:48:12.582Z,29
2022-09-01T12:50:16.333Z,29.9
2022-09-01T12:51:16.169Z,30.2
2022-09-01T12:52:19.827Z,30.4
2022-09-01T12:53:17.554Z,30.5
2022-09-01T12:54:18.768Z,30.8
2022-09-01T12:56:21.221Z,31.4
2022-09-01T12:57:22.214Z,31.6
2022-09-01T12:58:23.222Z,31.5
2022-09-01T12:59:26.316Z,31.3
2022-09-01T13:00:27.209Z,31
2022-09-01T13:01:28.425Z,30.6
2022-09-01T13:02:29.365Z,30.3
2022-09-01T13:03:30.182Z,29.9
2022-09-01T13:04:31.198Z,29.6
2022-09-01T13:05:36.230Z,29.4
2022-09-01T13:06:33.450Z,29.2
2022-09-01T13:07:34.218Z,29
2022-09-01T13:08:37.582Z,28.8
2022-09-01T13:09:37.228Z,28.6
2022-09-01T13:10:38.249Z,28.3
2022-09-01T13:12:40.207Z,28
2022-09-01T13:13:41.269Z,27.9
2022-09-01T13:14:42.290Z,27.8
2022-09-01T13:15:43.250Z,27.8
2022-09-01T13:16:44.236Z,27.8
2022-09-01T13:17:45.256Z,27.8
2022-09-01T13:19:48.275Z,27.6
2022-09-01T13:20:49.225Z,27.6
2022-09-01T13:21:50.240Z,27.7
2022-09-01T13:22:51.226Z,27.7
2022-09-01T13:23:52.254Z,27.7
2022-09-01T13:24:53.231Z,27.8
2022-09-01T13:25:54.224Z,27.9
2022-09-01T13:27:57.084Z,28.2
2022-09-01T13:28:58.279Z,28.5
2022-09-01T13:29:58.678Z,28.8
2022-09-01T13:32:18.226Z,29.9
2022-09-01T13:34:21.578Z,31
2022-09-01T13:35:03.805Z,31.4
2022-09-01T13:36:42.270Z,31.7
2022-09-01T13:37:06.292Z,32.1
2022-09-01T13:38:07.273Z,32.2
2022-09-01T13:39:08.311Z,32.1
2022-09-01T13:40:09.427Z,32
2022-09-01T13:41:11.639Z,31.8
2022-09-01T13:42:12.287Z,31.6
2022-09-01T13:43:13.371Z,31.4
2022-09-01T13:44:15.548Z,31.1
2022-09-01T13:45:16.485Z,30.6
2022-09-01T13:46:17.342Z,30.3
2022-09-01T13:47:33.882Z,30
2022-09-01T13:48:19.311Z,29.7
2022-09-01T13:50:23.965Z,29
2022-09-01T13:51:23.288Z,28.7
2022-09-01T13:52:24.343Z,28.3
2022-09-01T13:53:25.343Z,27.9
2022-09-01T13:54:26.321Z,27.7
2022-09-01T13:55:27.321Z,27.7
2022-09-01T13:56:29.339Z,27.6
2022-09-01T13:57:31.578Z,27.6
2022-09-01T13:58:31.285Z,27.7
2022-09-01T13:59:32.285Z,27.7
2022-09-01T14:00:33.411Z,27.7
2022-09-01T14:01:35.524Z,27.7
2022-09-01T14:02:37.328Z,27.9
2022-09-01T14:03:39.667Z,28.3
2022-09-01T14:04:42.800Z,28.7
2022-09-01T14:05:45.832Z,29.1
2022-09-01T14:06:48.489Z,29.6